createdAt,value
2016-07-12T00:00:41.838Z,17.59
2016-07-12T00:01:41.813Z,17.67
2016-07-12T00:02:41.800Z,17.67
2016-07-12T00:03:41.094Z,17.67
2016-07-12T00:04:41.067Z,17.64
2016-07-12T00:05:41.772Z,17.59
2016-07-12T00:06:40.347Z,17.59
2016-07-12T00:07:41.041Z,17.55
2016-07-12T00:08:41.743Z,17.62
2016-07-12T00:09:41.017Z,17.54
2016-07-12T00:10:40.298Z,17.62
2016-07-12T00:11:41.020Z,17.53
2016-07-12T00:12:41.694Z,17.5
2016-07-12T00:13:40.977Z,17.57
2016-07-12T00:14:40.978Z,17.57
2016-07-12T00:15:40.952Z,17.53
2016-07-12T00:16:40.963Z,17.53
2016-07-12T00:17:40.938Z,17.43
2016-07-12T00:18:40.920Z,17.48
2016-07-12T00:19:40.911Z,17.47
2016-07-12T00:20:41.607Z,17.43
2016-07-12T00:21:40.189Z,17.41
2016-07-12T00:22:40.174Z,17.54
2016-07-12T00:23:40.865Z,17.51
2016-07-12T00:24:40.355Z,17.43
2016-07-12T00:25:41.550Z,17.47
2016-07-12T00:26:40.883Z,17.53
2016-07-12T00:27:40.824Z,17.53
2016-07-12T00:28:40.102Z,17.5
2016-07-12T00:29:40.799Z,17.51
2016-07-12T00:30:40.790Z,17.47
2016-07-12T00:31:40.782Z,17.51
2016-07-12T00:32:40.774Z,17.54
2016-07-12T00:33:40.759Z,17.47
2016-07-12T00:34:40.744Z,17.51
2016-07-12T00:35:40.034Z,17.5
2016-07-12T00:36:41.438Z,17.4
2016-07-12T00:37:40.002Z,17.62
2016-07-12T00:38:40.704Z,17.4
2016-07-12T00:39:39.990Z,17.48
2016-07-12T00:40:40.679Z,17.53
2016-07-12T00:41:39.965Z,17.43
2016-07-12T00:42:39.959Z,17.46
2016-07-12T00:43:39.939Z,17.5
2016-07-12T00:44:39.932Z,17.36
2016-07-12T00:45:39.920Z,17.38
2016-07-12T00:46:40.615Z,17.35
2016-07-12T00:47:40.603Z,17.36
2016-07-12T00:48:39.887Z,17.4
2016-07-12T00:49:39.883Z,17.3
2016-07-12T00:50:39.860Z,17.33
2016-07-12T00:51:39.853Z,17.29
2016-07-12T00:52:40.554Z,17.29
2016-07-12T00:53:40.538Z,17.35
2016-07-12T00:54:40.526Z,17.3
2016-07-12T00:55:40.521Z,17.3
2016-07-12T00:56:39.801Z,17.35
2016-07-12T00:57:40.497Z,17.35
2016-07-12T00:58:40.485Z,17.26
2016-07-12T00:59:40.475Z,17.32
2016-07-12T01:00:41.163Z,17.26
2016-07-12T01:01:40.451Z,17.18
2016-07-12T01:02:40.439Z,17.15
2016-07-12T01:03:39.722Z,17.18
2016-07-12T01:04:40.418Z,17.17
2016-07-12T01:05:40.405Z,17.17
2016-07-12T01:06:41.106Z,17.17
2016-07-12T01:07:40.385Z,17.15
2016-07-12T01:08:39.668Z,17.18
2016-07-12T01:09:40.362Z,17.13
2016-07-12T01:10:40.351Z,17.08
2016-07-12T01:11:39.631Z,17.11
2016-07-12T01:12:40.332Z,17.11
2016-07-12T01:13:39.607Z,17.1
2016-07-12T01:14:40.308Z,17.07
2016-07-12T01:15:40.299Z,17.13
2016-07-12T01:16:39.581Z,17.08
2016-07-12T01:17:39.578Z,17.07
2016-07-12T01:18:40.261Z,17.07
2016-07-12T01:19:39.544Z,17.14
2016-07-12T01:20:40.949Z,17.06
2016-07-12T01:21:40.944Z,17.04
2016-07-12T01:22:39.507Z,17.13
2016-07-12T01:23:40.913Z,17.06
2016-07-12T01:24:39.489Z,17.03
2016-07-12T01:25:39.475Z,17
2016-07-12T01:26:39.467Z,17.04
2016-07-12T01:27:40.874Z,17.07
2016-07-12T01:28:39.449Z,17.03
2016-07-12T01:29:40.136Z,17.04
2016-07-12T01:30:40.132Z,16.98
2016-07-12T01:31:39.415Z,16.92
2016-07-12T01:32:40.108Z,16.98
2016-07-12T01:33:40.097Z,16.92
2016-07-12T01:34:39.386Z,16.98
2016-07-12T01:35:39.368Z,16.88
2016-07-12T01:36:40.073Z,16.88
2016-07-12T01:37:40.762Z,16.93
2016-07-12T01:38:40.039Z,16.85
2016-07-12T01:39:40.740Z,16.85
2016-07-12T01:40:39.316Z,16.81
2016-07-12T01:41:40.009Z,16.83
2016-07-12T01:42:40.010Z,16.68
2016-07-12T01:43:39.283Z,16.81
2016-07-12T01:44:40.680Z,16.8
2016-07-12T01:45:39.964Z,16.78
2016-07-12T01:46:39.248Z,16.7
2016-07-12T01:47:39.942Z,16.73
2016-07-12T01:48:39.930Z,16.63
2016-07-12T01:49:39.214Z,16.62
2016-07-12T01:50:39.200Z,16.62
2016-07-12T01:51:39.902Z,16.65
2016-07-12T01:52:39.887Z,16.62
2016-07-12T01:53:40.578Z,16.53
2016-07-12T01:54:39.879Z,16.6
2016-07-12T01:55:39.856Z,16.58
2016-07-12T01:56:39.838Z,16.62
2016-07-12T01:57:40.534Z,16.56
2016-07-12T01:58:39.112Z,16.71
2016-07-12T01:59:40.514Z,16.7
2016-07-12T02:00:39.088Z,16.73
2016-07-12T02:01:39.792Z,16.7
2016-07-12T02:02:39.080Z,16.7
2016-07-12T02:03:40.476Z,16.7
2016-07-12T02:04:39.750Z,16.73
2016-07-12T02:05:39.742Z,16.73
2016-07-12T02:06:39.727Z,16.71
2016-07-12T02:07:39.010Z,16.71
2016-07-12T02:08:39.707Z,16.71
2016-07-12T02:09:39.691Z,16.73
2016-07-12T02:10:39.690Z,16.7
2016-07-12T02:11:40.378Z,16.65
2016-07-12T02:12:39.663Z,16.67
2016-07-12T02:13:40.359Z,16.67
2016-07-12T02:14:39.639Z,16.62
2016-07-12T02:15:40.329Z,16.63
2016-07-12T02:16:39.614Z,16.65
2016-07-12T02:17:38.900Z,16.6
2016-07-12T02:18:39.596Z,16.55
2016-07-12T02:19:38.873Z,16.62
2016-07-12T02:20:40.277Z,16.59
2016-07-12T02:21:38.847Z,16.55
2016-07-12T02:22:39.548Z,16.56
2016-07-12T02:23:38.829Z,16.53
2016-07-12T02:24:39.772Z,16.49
2016-07-12T02:25:39.512Z,16.56
2016-07-12T02:26:39.501Z,16.52
2016-07-12T02:27:38.782Z,16.52
2016-07-12T02:28:38.775Z,16.49
2016-07-12T02:29:38.756Z,16.49
2016-07-12T02:30:38.757Z,16.5
2016-07-12T02:31:39.441Z,16.52
2016-07-12T02:32:38.726Z,16.48
2016-07-12T02:33:40.127Z,16.45
2016-07-12T02:34:39.420Z,16.48
2016-07-12T02:35:38.689Z,16.5
2016-07-12T02:36:39.388Z,16.34
2016-07-12T02:37:38.682Z,16.48
2016-07-12T02:38:39.361Z,16.37
2016-07-12T02:39:38.643Z,16.35
2016-07-12T02:40:38.635Z,16.35
2016-07-12T02:41:38.644Z,16.25
2016-07-12T02:42:40.024Z,16.27
2016-07-12T02:43:40.048Z,16.33
2016-07-12T02:44:38.593Z,16.38
2016-07-12T02:45:39.286Z,16.33
2016-07-12T02:46:38.568Z,16.31
2016-07-12T02:47:39.262Z,16.34
2016-07-12T02:48:39.252Z,16.26
2016-07-12T02:49:39.243Z,16.27
2016-07-12T02:50:38.521Z,16.34
2016-07-12T02:51:39.218Z,16.34
2016-07-12T02:52:38.496Z,16.34
2016-07-12T02:53:39.189Z,16.26
2016-07-12T02:54:38.481Z,16.3
2016-07-12T02:55:39.877Z,16.26
2016-07-12T02:56:38.453Z,16.34
2016-07-12T02:57:39.150Z,16.3
2016-07-12T02:58:39.153Z,16.23
2016-07-12T02:59:39.836Z,16.3
2016-07-12T03:00:39.115Z,16.23
2016-07-12T03:01:38.394Z,16.27
2016-07-12T03:02:39.085Z,16.27
2016-07-12T03:03:39.072Z,16.26
2016-07-12T03:04:38.356Z,16.23
2016-07-12T03:05:39.783Z,16.18
2016-07-12T03:06:39.056Z,16.25
2016-07-12T03:07:38.346Z,16.22
2016-07-12T03:08:39.041Z,16.22
2016-07-12T03:09:39.014Z,16.18
2016-07-12T03:10:39.726Z,16.14
2016-07-12T03:11:38.983Z,16.15
2016-07-12T03:12:38.265Z,16.14
2016-07-12T03:13:38.961Z,16.14
2016-07-12T03:14:38.244Z,16.12
2016-07-12T03:15:38.229Z,16.11
2016-07-12T03:16:39.633Z,16.18
2016-07-12T03:17:38.934Z,16.07
2016-07-12T03:18:38.908Z,16.11
2016-07-12T03:19:38.183Z,16.06
2016-07-12T03:20:38.878Z,16.06
2016-07-12T03:21:38.864Z,16.03
2016-07-12T03:22:38.147Z,16.03
2016-07-12T03:23:38.148Z,16.04
2016-07-12T03:24:38.126Z,16.01
2016-07-12T03:25:39.525Z,15.96
2016-07-12T03:26:38.808Z,16.04
2016-07-12T03:27:38.087Z,15.88
2016-07-12T03:28:38.784Z,15.86
2016-07-12T03:29:38.785Z,15.92
2016-07-12T03:30:38.054Z,15.89
2016-07-12T03:31:38.044Z,15.89
2016-07-12T03:32:38.031Z,15.93
2016-07-12T03:33:38.017Z,15.94
2016-07-12T03:34:39.421Z,15.93
2016-07-12T03:35:38.702Z,15.89
2016-07-12T03:36:39.396Z,15.93
2016-07-12T03:37:38.676Z,15.94
2016-07-12T03:38:38.674Z,15.86
2016-07-12T03:39:37.943Z,15.94
2016-07-12T03:40:37.933Z,15.96
2016-07-12T03:41:37.928Z,15.94
2016-07-12T03:42:37.910Z,15.96
2016-07-12T03:43:38.610Z,16.03
2016-07-12T03:44:37.899Z,16.06
2016-07-12T03:45:37.878Z,16.01
2016-07-12T03:46:37.860Z,16.01
2016-07-12T03:47:37.865Z,16.09
2016-07-12T03:48:37.845Z,16.15
2016-07-12T03:49:38.543Z,16.07
2016-07-12T03:50:38.529Z,16.16
2016-07-12T03:51:37.818Z,16.11
2016-07-12T03:52:37.807Z,16.06
2016-07-12T03:53:37.782Z,16.12
2016-07-12T03:54:38.475Z,16.11
2016-07-12T03:55:37.786Z,16.16
2016-07-12T03:56:37.749Z,16.12
2016-07-12T03:57:38.439Z,16.14
2016-07-12T03:58:38.445Z,16.12
2016-07-12T03:59:37.727Z,16.09
2016-07-12T04:00:39.190Z,16.12
2016-07-12T04:01:38.402Z,16.15
2016-07-12T04:02:38.385Z,16.15
2016-07-12T04:03:37.665Z,16.12
2016-07-12T04:04:37.655Z,16.16
2016-07-12T04:05:39.058Z,16.07
2016-07-12T04:06:38.337Z,16.15
2016-07-12T04:07:38.331Z,16.12
2016-07-12T04:08:37.617Z,16.22
2016-07-12T04:09:38.301Z,16.18
2016-07-12T04:10:37.582Z,16.23
2016-07-12T04:11:38.284Z,16.2
2016-07-12T04:12:38.271Z,16.27
2016-07-12T04:13:38.964Z,16.27
2016-07-12T04:14:38.244Z,16.27
2016-07-12T04:15:38.940Z,16.31
2016-07-12T04:16:37.513Z,16.26
2016-07-12T04:17:37.500Z,16.31
2016-07-12T04:18:38.908Z,16.4
2016-07-12T04:19:38.189Z,16.37
2016-07-12T04:20:37.466Z,16.44
2016-07-12T04:21:37.452Z,16.41
2016-07-12T04:22:38.154Z,16.48
2016-07-12T04:23:38.141Z,16.49
2016-07-12T04:24:38.529Z,16.53
2016-07-12T04:25:38.117Z,16.5
2016-07-12T04:26:38.823Z,16.62
2016-07-12T04:27:38.090Z,16.59
2016-07-12T04:28:38.081Z,16.62
2016-07-12T04:29:37.371Z,16.6
2016-07-12T04:30:37.350Z,16.62
2016-07-12T04:31:38.048Z,16.62
2016-07-12T04:32:38.038Z,16.62
2016-07-12T04:33:37.313Z,16.67
2016-07-12T04:34:38.014Z,16.7
2016-07-12T04:35:38.000Z,16.74
2016-07-12T04:36:37.280Z,16.71
2016-07-12T04:37:37.986Z,16.7
2016-07-12T04:38:37.259Z,16.71
2016-07-12T04:39:37.959Z,16.71
2016-07-12T04:40:38.665Z,16.71
2016-07-12T04:41:37.937Z,16.8
2016-07-12T04:42:37.224Z,16.71
2016-07-12T04:43:37.205Z,16.75
2016-07-12T04:44:37.196Z,16.71
2016-07-12T04:45:37.887Z,16.74
2016-07-12T04:46:37.169Z,16.74
2016-07-12T04:47:37.866Z,16.77
2016-07-12T04:48:38.558Z,16.75
2016-07-12T04:49:37.137Z,16.75
2016-07-12T04:50:37.130Z,16.83
2016-07-12T04:51:37.111Z,16.73
2016-07-12T04:52:37.808Z,16.81
2016-07-12T04:53:37.093Z,16.81
2016-07-12T04:54:37.081Z,16.83
2016-07-12T04:55:37.782Z,16.75
2016-07-12T04:56:37.063Z,16.78
2016-07-12T04:57:37.043Z,16.85
2016-07-12T04:58:37.034Z,16.75
2016-07-12T04:59:38.448Z,16.75
2016-07-12T05:00:37.009Z,16.74
2016-07-12T05:01:37.707Z,16.77
2016-07-12T05:02:37.695Z,16.75
2016-07-12T05:03:37.680Z,16.81
2016-07-12T05:04:36.967Z,16.78
2016-07-12T05:05:36.953Z,16.8
2016-07-12T05:06:38.355Z,16.85
2016-07-12T05:07:36.927Z,16.77
2016-07-12T05:08:36.919Z,16.77
2016-07-12T05:09:36.907Z,16.71
2016-07-12T05:10:36.900Z,16.74
2016-07-12T05:11:36.887Z,16.74
2016-07-12T05:12:36.871Z,16.8
2016-07-12T05:13:38.289Z,16.88
2016-07-12T05:14:37.560Z,16.75
2016-07-12T05:15:36.840Z,16.89
2016-07-12T05:16:37.540Z,16.8
2016-07-12T05:17:36.818Z,16.8
2016-07-12T05:18:37.515Z,16.88
2016-07-12T05:19:36.798Z,16.8
2016-07-12T05:20:36.786Z,16.83
2016-07-12T05:21:38.185Z,16.78
2016-07-12T05:22:38.176Z,16.88
2016-07-12T05:23:37.462Z,16.85
2016-07-12T05:24:38.149Z,16.88
2016-07-12T05:25:37.433Z,16.93
2016-07-12T05:26:36.716Z,16.9
2016-07-12T05:27:37.409Z,16.92
2016-07-12T05:28:36.694Z,16.95
2016-07-12T05:29:37.391Z,17.03
2016-07-12T05:30:36.674Z,17.03
2016-07-12T05:31:36.658Z,17.04
2016-07-12T05:32:38.063Z,17.03
2016-07-12T05:33:38.048Z,17.13
2016-07-12T05:34:38.036Z,17.1
2016-07-12T05:35:37.324Z,17.13
2016-07-12T05:36:36.605Z,17.06
2016-07-12T05:37:36.588Z,17.07
2016-07-12T05:38:36.582Z,17.14
2016-07-12T05:39:36.582Z,17.13
2016-07-12T05:40:37.977Z,17.18
2016-07-12T05:41:37.253Z,17.18
2016-07-12T05:42:37.956Z,17.18
2016-07-12T05:43:37.939Z,17.23
2016-07-12T05:44:37.220Z,17.23
2016-07-12T05:45:36.506Z,17.29
2016-07-12T05:46:36.490Z,17.26
2016-07-12T05:47:37.893Z,17.36
2016-07-12T05:48:37.175Z,17.35
2016-07-12T05:49:36.455Z,17.32
2016-07-12T05:50:36.450Z,17.36
2016-07-12T05:51:36.432Z,17.36
2016-07-12T05:52:37.133Z,17.4
2016-07-12T05:53:37.117Z,17.46
2016-07-12T05:54:36.407Z,17.48
2016-07-12T05:55:37.094Z,17.46
2016-07-12T05:56:37.088Z,17.48
2016-07-12T05:57:37.085Z,17.43
2016-07-12T05:58:36.355Z,17.46
2016-07-12T05:59:37.054Z,17.53
2016-07-12T06:00:37.748Z,17.51
2016-07-12T06:01:36.321Z,17.55
2016-07-12T06:02:37.729Z,17.57
2016-07-12T06:03:37.006Z,17.66
2016-07-12T06:04:37.706Z,17.69
2016-07-12T06:05:36.290Z,17.66
2016-07-12T06:06:36.976Z,17.62
2016-07-12T06:07:36.254Z,17.69
2016-07-12T06:08:36.957Z,17.7
2016-07-12T06:09:37.658Z,17.7
2016-07-12T06:10:36.928Z,17.79
2016-07-12T06:11:36.213Z,17.79
2016-07-12T06:12:36.910Z,17.84
2016-07-12T06:13:36.906Z,17.84
2016-07-12T06:14:36.896Z,17.84
2016-07-12T06:15:36.166Z,17.92
2016-07-12T06:16:36.154Z,17.91
2016-07-12T06:17:36.868Z,17.91
2016-07-12T06:18:36.136Z,18.1
2016-07-12T06:19:36.135Z,18.24
2016-07-12T06:20:36.826Z,18.33
2016-07-12T06:21:36.817Z,18.39
2016-07-12T06:22:36.799Z,18.36
2016-07-12T06:23:36.847Z,18.28
2016-07-12T06:24:36.782Z,18.27
2016-07-12T06:25:36.059Z,18.22
2016-07-12T06:26:36.052Z,18.28
2016-07-12T06:27:36.751Z,18.29
2016-07-12T06:28:36.030Z,18.34
2016-07-12T06:29:36.731Z,18.34
2016-07-12T06:30:37.431Z,18.34
2016-07-12T06:31:36.708Z,18.37
2016-07-12T06:32:35.991Z,18.36
2016-07-12T06:33:36.740Z,18.43
2016-07-12T06:34:36.675Z,18.34
2016-07-12T06:35:36.671Z,18.4
2016-07-12T06:36:35.956Z,18.39
2016-07-12T06:37:36.652Z,18.4
2016-07-12T06:38:36.639Z,18.4
2016-07-12T06:39:36.624Z,18.52
2016-07-12T06:40:35.906Z,18.5
2016-07-12T06:41:37.324Z,18.57
2016-07-12T06:42:35.885Z,18.55
2016-07-12T06:43:36.587Z,18.59
2016-07-12T06:44:35.867Z,18.58
2016-07-12T06:45:36.567Z,18.5
2016-07-12T06:46:36.557Z,18.59
2016-07-12T06:47:36.537Z,18.7
2016-07-12T06:48:36.531Z,18.68
2016-07-12T06:49:36.533Z,18.76
2016-07-12T06:50:36.513Z,18.74
2016-07-12T06:51:36.512Z,18.76
2016-07-12T06:52:36.493Z,18.77
2016-07-12T06:53:37.183Z,18.74
2016-07-12T06:54:36.469Z,18.79
2016-07-12T06:55:35.752Z,18.79
2016-07-12T06:56:35.746Z,18.79
2016-07-12T06:57:37.144Z,18.79
2016-07-12T06:58:35.725Z,18.83
2016-07-12T06:59:36.419Z,18.84
2016-07-12T07:00:36.408Z,18.94
2016-07-12T07:01:35.693Z,18.92
2016-07-12T07:02:36.391Z,18.97
2016-07-12T07:03:35.675Z,18.95
2016-07-12T07:04:36.363Z,18.99
2016-07-12T07:05:35.653Z,19.06
2016-07-12T07:06:35.648Z,19.01
2016-07-12T07:07:35.632Z,19.17
2016-07-12T07:08:35.623Z,19.21
2016-07-12T07:09:37.024Z,19.21
2016-07-12T07:10:36.304Z,19.35
2016-07-12T07:11:35.597Z,19.29
2016-07-12T07:12:35.584Z,19.31
2016-07-12T07:13:36.987Z,19.33
2016-07-12T07:14:36.272Z,19.38
2016-07-12T07:15:36.259Z,19.35
2016-07-12T07:16:36.954Z,19.4
2016-07-12T07:17:36.235Z,19.39
2016-07-12T07:18:35.525Z,19.51
2016-07-12T07:19:36.223Z,19.53
2016-07-12T07:20:36.911Z,19.47
2016-07-12T07:21:36.199Z,19.48
2016-07-12T07:22:36.191Z,19.39
2016-07-12T07:23:35.471Z,19.33
2016-07-12T07:24:36.880Z,19.42
2016-07-12T07:25:35.452Z,19.42
2016-07-12T07:26:35.442Z,19.51
2016-07-12T07:27:35.435Z,19.53
2016-07-12T07:28:36.848Z,19.58
2016-07-12T07:29:36.125Z,19.51
2016-07-12T07:30:36.112Z,19.58
2016-07-12T07:31:36.104Z,19.53
2016-07-12T07:32:35.388Z,19.6
2016-07-12T07:33:36.080Z,19.57
2016-07-12T07:34:35.369Z,19.72
2016-07-12T07:35:35.363Z,19.86
2016-07-12T07:36:35.360Z,20.28
2016-07-12T07:37:36.045Z,20.8
2016-07-12T07:38:36.042Z,21.78
2016-07-12T07:39:35.374Z,22.31
2016-07-12T07:40:36.019Z,22.97
2016-07-12T07:41:36.018Z,23.45
2016-07-12T07:42:35.309Z,23.98
2016-07-12T07:43:36.001Z,24.35
2016-07-12T07:44:35.995Z,24.54
2016-07-12T07:45:35.279Z,23.8
2016-07-12T07:46:35.981Z,24.02
2016-07-12T07:47:35.972Z,24.31
2016-07-12T07:48:35.966Z,24.64
2016-07-12T07:49:36.663Z,24.52
2016-07-12T07:50:36.658Z,23.72
2016-07-12T07:51:35.238Z,23.83
2016-07-12T07:52:35.234Z,24.2
2016-07-12T07:53:35.223Z,24.01
2016-07-12T07:54:35.217Z,24.38
2016-07-12T07:55:36.624Z,23.75
2016-07-12T07:56:35.209Z,23.98
2016-07-12T07:57:35.909Z,23.7
2016-07-12T07:58:36.610Z,23.61
2016-07-12T07:59:35.891Z,23.14
2016-07-12T08:00:36.597Z,23.02
2016-07-12T08:01:35.883Z,23.15
2016-07-12T08:02:36.589Z,24.07
2016-07-12T08:03:35.157Z,24.94
2016-07-12T08:04:36.620Z,24.79
2016-07-12T08:05:35.158Z,24.47
2016-07-12T08:06:36.568Z,25.22
2016-07-12T08:07:35.135Z,24.91
2016-07-12T08:08:35.839Z,24.02
2016-07-12T08:09:35.832Z,23.55
2016-07-12T08:10:36.535Z,24.57
2016-07-12T08:11:35.825Z,24.97
2016-07-12T08:12:35.107Z,25.71
2016-07-12T08:13:35.807Z,25.25
2016-07-12T08:14:35.800Z,25.54
2016-07-12T08:15:35.796Z,24.92
2016-07-12T08:16:35.793Z,24.34
2016-07-12T08:17:36.495Z,24.95
2016-07-12T08:18:35.077Z,25.25
2016-07-12T08:19:35.070Z,25.57
2016-07-12T08:20:35.068Z,26.15
2016-07-12T08:21:35.064Z,25.8
2016-07-12T08:22:35.761Z,26.57
2016-07-12T08:23:35.054Z,26.98
2016-07-12T08:24:35.756Z,27.38
2016-07-12T08:25:35.957Z,26.72
2016-07-12T08:26:36.457Z,25.62
2016-07-12T08:27:35.750Z,24.95
2016-07-12T08:28:35.035Z,24.92
2016-07-12T08:29:36.453Z,25.19
2016-07-12T08:30:36.440Z,25.54
2016-07-12T08:31:35.902Z,25.77
2016-07-12T08:32:35.024Z,25.97
2016-07-12T08:33:35.728Z,26.24
2016-07-12T08:34:35.015Z,26.55
2016-07-12T08:35:35.722Z,26.73
2016-07-12T08:36:35.713Z,26.94
2016-07-12T08:37:35.016Z,27.17
2016-07-12T08:38:35.715Z,27.73
2016-07-12T08:39:35.705Z,27.54
2016-07-12T08:40:35.000Z,27.43
2016-07-12T08:41:36.410Z,27.53
2016-07-12T08:42:35.716Z,27.5
2016-07-12T08:43:34.989Z,27.23
2016-07-12T08:44:34.988Z,27.23
2016-07-12T08:45:34.991Z,27.42
2016-07-12T08:46:35.705Z,27.58
2016-07-12T08:47:35.701Z,27.61
2016-07-12T08:48:35.690Z,27.76
2016-07-12T08:49:34.983Z,27.94
2016-07-12T08:50:35.692Z,28.1
2016-07-12T08:51:34.980Z,27.53
2016-07-12T08:52:35.685Z,27.29
2016-07-12T08:53:35.682Z,26.24
2016-07-12T08:54:34.971Z,25.79
2016-07-12T08:55:35.679Z,25.49
2016-07-12T08:56:34.966Z,25.42
2016-07-12T08:57:35.674Z,25.62
2016-07-12T08:58:34.963Z,26.01
2016-07-12T08:59:35.666Z,25.97
2016-07-12T09:00:35.668Z,25.98
2016-07-12T09:01:34.953Z,26.05
2016-07-12T09:02:34.949Z,25.44
2016-07-12T09:03:34.948Z,24.94
2016-07-12T09:04:35.646Z,24.8
2016-07-12T09:05:34.937Z,24.54
2016-07-12T09:06:34.931Z,24.5
2016-07-12T09:07:36.343Z,24.57
2016-07-12T09:08:34.921Z,24.29
2016-07-12T09:09:34.916Z,23.86
2016-07-12T09:10:34.912Z,23.77
2016-07-12T09:11:35.619Z,23.65
2016-07-12T09:12:35.609Z,23.68
2016-07-12T09:13:34.897Z,23.55
2016-07-12T09:14:36.311Z,23.77
2016-07-12T09:15:35.600Z,24.37
2016-07-12T09:16:35.599Z,24.56
2016-07-12T09:17:35.588Z,24.82
2016-07-12T09:18:34.881Z,24.37
2016-07-12T09:19:34.879Z,24.39
2016-07-12T09:20:36.282Z,24.85
2016-07-12T09:21:36.284Z,24.63
2016-07-12T09:22:35.579Z,25.07
2016-07-12T09:23:35.620Z,25.62
2016-07-12T09:24:36.284Z,25.93
2016-07-12T09:25:35.578Z,26.17
2016-07-12T09:26:35.559Z,26.37
2016-07-12T09:27:35.560Z,26.61
2016-07-12T09:28:34.851Z,26.98
2016-07-12T09:29:34.846Z,26.68
2016-07-12T09:30:35.564Z,26.77
2016-07-12T09:31:34.844Z,26.77
2016-07-12T09:32:34.843Z,26.86
2016-07-12T09:33:34.838Z,27.13
2016-07-12T09:34:36.253Z,27.24
2016-07-12T09:35:35.547Z,26.35
2016-07-12T09:36:34.844Z,26.05
2016-07-12T09:37:36.255Z,25.8
2016-07-12T09:38:35.544Z,25.39
2016-07-12T09:39:36.245Z,25.9
2016-07-12T09:40:35.542Z,25.84
2016-07-12T09:41:34.842Z,25.71
2016-07-12T09:42:35.543Z,25.37
2016-07-12T09:43:36.241Z,25.54
2016-07-12T09:44:35.527Z,25.32
2016-07-12T09:45:34.822Z,25.56
2016-07-12T09:46:35.532Z,25.71
2016-07-12T09:47:34.817Z,25.87
2016-07-12T09:48:36.238Z,25.47
2016-07-12T09:49:35.522Z,24.77
2016-07-12T09:50:35.521Z,24.32
2016-07-12T09:51:35.514Z,24.35
2016-07-12T09:52:36.219Z,23.94
2016-07-12T09:53:36.219Z,23.72
2016-07-12T09:54:34.797Z,23.43
2016-07-12T09:55:34.795Z,23.38
2016-07-12T09:56:35.500Z,23.27
2016-07-12T09:57:35.499Z,23.35
2016-07-12T09:58:34.785Z,23.38
2016-07-12T09:59:35.492Z,23.2
2016-07-12T10:00:36.193Z,22.96
2016-07-12T10:01:35.486Z,23.27
2016-07-12T10:02:34.768Z,23.38
2016-07-12T10:03:35.472Z,23.27
2016-07-12T10:04:34.766Z,23.52
2016-07-12T10:05:34.760Z,23.42
2016-07-12T10:06:34.767Z,23.11
2016-07-12T10:07:35.455Z,23.34
2016-07-12T10:08:35.448Z,23.27
2016-07-12T10:09:34.735Z,23.23
2016-07-12T10:10:34.735Z,23.47
2016-07-12T10:11:35.436Z,23.47
2016-07-12T10:12:35.433Z,24.05
2016-07-12T10:13:35.461Z,24.54
2016-07-12T10:14:35.425Z,25.05
2016-07-12T10:15:35.423Z,25.47
2016-07-12T10:16:36.117Z,25.83
2016-07-12T10:17:35.408Z,26.08
2016-07-12T10:18:35.411Z,26.46
2016-07-12T10:19:35.402Z,26.5
2016-07-12T10:20:34.700Z,26.65
2016-07-12T10:21:35.402Z,26.62
2016-07-12T10:22:35.405Z,26.87
2016-07-12T10:23:35.401Z,27.04
2016-07-12T10:24:34.690Z,27.48
2016-07-12T10:25:36.309Z,27.74
2016-07-12T10:26:35.397Z,27.8
2016-07-12T10:27:34.686Z,27.74
2016-07-12T10:28:34.686Z,27.61
2016-07-12T10:29:35.397Z,27.1
2016-07-12T10:31:35.397Z,27.32
2016-07-12T10:32:34.690Z,26.95
2016-07-12T10:33:35.396Z,27.24
2016-07-12T10:35:07.629Z,27.51
2016-07-12T10:35:35.401Z,27.67
2016-07-12T10:36:35.407Z,27.8
2016-07-12T10:37:34.690Z,28.07
2016-07-12T10:38:34.695Z,28.26
2016-07-12T10:39:35.401Z,28.22
2016-07-12T10:40:35.401Z,28.33
2016-07-12T10:41:35.406Z,28.33
2016-07-12T10:42:36.115Z,28.31
2016-07-12T10:43:35.435Z,28.78
2016-07-12T10:44:36.124Z,28.97
2016-07-12T10:45:34.702Z,29.06
2016-07-12T10:46:35.408Z,28.59
2016-07-12T10:47:36.125Z,27.88
2016-07-12T10:48:35.416Z,27.73
2016-07-12T10:49:34.709Z,28.13
2016-07-12T10:50:36.172Z,28.22
2016-07-12T10:51:35.419Z,27.92
2016-07-12T10:52:34.716Z,27.77
2016-07-12T10:53:34.720Z,27.64
2016-07-12T10:54:36.134Z,27.69
2016-07-12T10:55:36.137Z,27.23
2016-07-12T10:56:35.428Z,27.24
2016-07-12T10:57:36.142Z,27.17
2016-07-12T10:58:35.428Z,27.53
2016-07-12T10:59:34.727Z,27.73
2016-07-12T11:00:35.441Z,27.94
2016-07-12T11:01:34.728Z,27.79
2016-07-12T11:02:34.730Z,27.67
2016-07-12T11:03:36.141Z,26.96
2016-07-12T11:04:35.486Z,26.69
2016-07-12T11:05:36.172Z,27.01
2016-07-12T11:06:35.444Z,27.29
2016-07-12T11:07:36.199Z,27.43
2016-07-12T11:08:36.149Z,27.74
2016-07-12T11:09:35.433Z,27.95
2016-07-12T11:10:35.443Z,28.31
2016-07-12T11:11:35.443Z,28.53
2016-07-12T11:12:34.742Z,29.04
2016-07-12T11:13:34.735Z,29.35
2016-07-12T11:14:36.152Z,29.5
2016-07-12T11:15:35.452Z,29.71
2016-07-12T11:16:35.441Z,29.94
2016-07-12T11:17:35.449Z,29.81
2016-07-12T11:18:36.172Z,29.59
2016-07-12T11:19:34.748Z,29.33
2016-07-12T11:20:35.452Z,28.97
2016-07-12T11:21:35.454Z,28.44
2016-07-12T11:22:35.458Z,28.01
2016-07-12T11:23:34.752Z,27.91
2016-07-12T11:24:36.176Z,28.36
2016-07-12T11:25:35.515Z,28.68
2016-07-12T11:26:34.771Z,28.77
2016-07-12T11:27:35.474Z,28.87
2016-07-12T11:28:36.173Z,28.78
2016-07-12T11:29:34.766Z,28.4
2016-07-12T11:30:35.481Z,28.41
2016-07-12T11:31:36.184Z,28.43
2016-07-12T11:32:34.776Z,28.38
2016-07-12T11:33:35.476Z,28.48
2016-07-12T11:34:36.188Z,28.66
2016-07-12T11:35:35.486Z,29.01
2016-07-12T11:36:36.206Z,29.07
2016-07-12T11:37:35.495Z,29.4
2016-07-12T11:38:34.778Z,29.6
2016-07-12T11:39:35.496Z,29.74
2016-07-12T11:40:35.496Z,29.97
2016-07-12T11:41:35.494Z,30.08
2016-07-12T11:42:35.532Z,30.23
2016-07-12T11:43:34.797Z,30.46
2016-07-12T11:44:35.500Z,30.18
2016-07-12T11:45:34.792Z,30.24
2016-07-12T11:46:34.797Z,29.57
2016-07-12T11:47:36.225Z,29.18
2016-07-12T11:48:35.516Z,28.47
2016-07-12T11:49:34.812Z,27.94
2016-07-12T11:50:35.527Z,27.77
2016-07-12T11:51:34.833Z,28.22
2016-07-12T11:52:35.534Z,28.5
2016-07-12T11:53:36.234Z,28.6
2016-07-12T11:54:36.237Z,27.85
2016-07-12T11:55:34.824Z,27.05
2016-07-12T11:56:35.529Z,26.87
2016-07-12T11:57:34.822Z,26.84
2016-07-12T11:58:35.528Z,26.72
2016-07-12T11:59:34.838Z,26.69
2016-07-12T12:00:35.533Z,26.79
2016-07-12T12:01:34.826Z,27.17
2016-07-12T12:02:36.247Z,27.66
2016-07-12T12:03:34.826Z,27.91
2016-07-12T12:04:35.531Z,28.07
2016-07-12T12:05:34.828Z,27.96
2016-07-12T12:06:35.534Z,27.95
2016-07-12T12:07:34.901Z,28.06
2016-07-12T12:08:34.827Z,28.26
2016-07-12T12:09:35.538Z,28.77
2016-07-12T12:10:34.835Z,29.07
2016-07-12T12:11:36.242Z,29.11
2016-07-12T12:12:35.539Z,28.51
2016-07-12T12:13:34.829Z,28.6
2016-07-12T12:14:35.543Z,28.72
2016-07-12T12:15:36.263Z,28.68
2016-07-12T12:16:35.544Z,28.72
2016-07-12T12:17:35.545Z,28.8
2016-07-12T12:18:35.542Z,29.15
2016-07-12T12:19:35.545Z,28.87
2016-07-12T12:20:34.841Z,28.93
2016-07-12T12:21:35.546Z,29.06
2016-07-12T12:22:35.547Z,28.56
2016-07-12T12:23:35.579Z,27.91
2016-07-12T12:24:35.553Z,27.82
2016-07-12T12:25:35.059Z,27.39
2016-07-12T12:26:34.852Z,27.29
2016-07-12T12:27:34.848Z,27.14
2016-07-12T12:28:35.562Z,27.2
2016-07-12T12:29:34.845Z,26.81
2016-07-12T12:30:34.860Z,26.84
2016-07-12T12:31:34.857Z,26.76
2016-07-12T12:32:34.848Z,26.68
2016-07-12T12:33:35.565Z,26.46
2016-07-12T12:34:36.266Z,26.49
2016-07-12T12:35:35.566Z,26.74
2016-07-12T12:36:35.577Z,26.94
2016-07-12T12:37:35.553Z,26.73
2016-07-12T12:38:34.848Z,26.58
2016-07-12T12:39:35.548Z,26.54
2016-07-12T12:40:35.548Z,26.32
2016-07-12T12:41:35.545Z,26.18
2016-07-12T12:42:35.543Z,26.24
2016-07-12T12:43:34.831Z,26.28
2016-07-12T12:44:34.830Z,26.15
2016-07-12T12:45:35.531Z,26.08
2016-07-12T12:46:34.822Z,26.09
2016-07-12T12:47:35.526Z,26.18
2016-07-12T12:48:36.233Z,26.15
2016-07-12T12:49:35.520Z,26.29
2016-07-12T12:50:35.520Z,26.36
2016-07-12T12:51:34.808Z,26.44
2016-07-12T12:52:34.803Z,26.55
2016-07-12T12:53:34.814Z,27.06
2016-07-12T12:54:34.798Z,27.28
2016-07-12T12:55:35.557Z,27.61
2016-07-12T12:56:35.499Z,27.54